KSMD/SMD METAR and TAF weather

Enter ICAO airport designator
Station Type Date Time Source
KSMD METAR 2024/04/18 06:55 UTC NOAA

KSMD 180655Z AUTO 32007KT 10SM OVC029 13/08 A2998 RMK A01


Station Type Date Time Source
KSMD Decoded METAR 2024/04/18 06:55 UTC NOAA

Station name not available
Apr 18, 2024 - 02:55 AM EDT / 2024.04.18 0655 UTC
Wind: from the NW (320 degrees) at 8 MPH (7 KT):0
Visibility: 10 mile(s):0
Sky conditions: overcast
Temperature: 55 F (13 C)
Dew Point: 46 F (8 C)
Relative Humidity: 71%
Pressure (altimeter): 29.98 in. Hg (1015 hPa)
ob: KSMD 180655Z AUTO 32007KT 10SM OVC029 13/08 A2998 RMK A01
cycle: 7

Station Type Date Time Source
KSMD TAF UTC NOAA

Error!

Example: see airport list